02:58
Airports
Links
Donate
Help keep this website running!
PayPal
Bitcoin
METAR
KVJI 180255Z AUTO 27007KT 3SM BR OVC003 08/08 A3012 RMK AO2 P0001 60005 T00830083
Current Weather Conditions at KVJI
LIFR 02:55:00 18-02-18
Automated station, no observer
Altimeter:30.12 hg
Temp:8.3°c 46°f
Dew point:8.3°c 46°f
Wind:7 knots, 8.1 mph, 4 m/s, from 270°
Visibility:3.0 statute miles
300(OVC) Overcast
Past METAR reports
LIFR 02:35:00 18-02-18
Automated station, no observer
Altimeter:30.11 hg
Temp:8.2°c 46°f
Dew point:8.2°c 46°f
Wind:7 knots, 8.1 mph, 4 m/s, from 280°
Visibility:4.0 statute miles
300(OVC) Overcast
KVJI 180235Z AUTO 28007KT 4SM BR OVC003 08/08 A3011 RMK AO2 P0001 T00820082
LIFR 02:15:00 18-02-18
Automated station, no observer
Altimeter:30.10 hg
Temp:8.0°c 46°f
Dew point:8.0°c 46°f
Wind:4 knots, 4.6 mph, 2 m/s, from 290°
Visibility:5.0 statute miles
300(OVC) Overcast
KVJI 180215Z AUTO 29004KT 5SM BR OVC003 08/08 A3010 RMK AO2 P0001 T00800080
LIFR 01:55:00 18-02-18
Automated station, no observer
Altimeter:30.10 hg
Temp:7.9°c 45°f
Dew point:7.9°c 45°f
Wind:5 knots, 5.8 mph, 3 m/s, from 290°
Visibility:7.0 statute miles
300(OVC) Overcast
KVJI 180155Z AUTO 29005KT 7SM OVC003 08/08 A3010 RMK AO2 P0001 T00790079
LIFR 01:35:00 18-02-18
Automated station, no observer
Altimeter:30.07 hg
Temp:7.7°c 45°f
Dew point:7.7°c 45°f
Wind:0 knots, 0 mph, 0 m/s,
Variable direction
Visibility:4.0 statute miles
300(OVC) Overcast
KVJI 180135Z AUTO 00000KT 4SM -RA OVC003 08/08 A3007 RMK AO2 P0001 T00770077
LIFR 01:15:00 18-02-18
Automated station, no observer
Altimeter:30.08 hg
Temp:7.6°c 45°f
Dew point:7.6°c 45°f
Wind:4 knots, 4.6 mph, 2 m/s, from 300°
Visibility:4.0 statute miles
300(OVC) Overcast
KVJI 180115Z AUTO 30004KT 4SM -RA OVC003 08/08 A3008 RMK AO2 P0001 T00760076
LIFR 00:55:00 18-02-18
Automated station, no observer
Altimeter:30.07 hg
Temp:7.5°c 45°f
Dew point:7.5°c 45°f
Wind:3 knots, 3.5 mph, 2 m/s, from 270°
Visibility:4.0 statute miles
300(OVC) Overcast
KVJI 180055Z AUTO 27003KT 4SM RA OVC003 08/08 A3007 RMK AO2 P0003 T00750075
TAF
No TAF for KVJI
Forecast at KVJI
No Forecast Reports for KVJI